Aviation Digital Data Service (ADDS)

Output produced by METARs form (0903 UTC 29 March 2017)
found at http://aviationweather.gov/adds/metars/
 
KBTV 290629Z 2906/3006 00000KT P6SM -DZ SCT025 OVC045 
     TEMPO 2906/2908 5SM -RA BR BKN006 OVC025 
     FM290800 VRB03KT 3SM -DZ BR OVC025 
     FM291200 35006KT P6SM VCSH OVC020 
     FM291700 33011G18KT P6SM OVC035 
     FM300000 34007KT P6SM OVC050